Main page
METAR-TAF:

METAR-TAF

Airports :

Pyongyang Sunan International Airport

Pyongyang, North Korea

latitude: 39-02N, longitude: 125-47E, elevation: 36 m

METAR: missing

Time: 09:45 (00:45 UTC)

Forecast

The report was made 3 hours and 55 minutes ago, at 20:50 UTC
Forecast valid from 04 at 00 UTC to 04 at 24 UTC
Wind 6 kt from the Southeast
Visibility 10 km or more
no clouds below 1500 m and no cumulonimbus

TAF: ZKPY 032050Z 0400/0424 14003MPS CAVOK TX08/0406Z TNM02/0421Z

Weather observations and forecasts of more than 4000 airports (METAR and TAF reports).

The available stations are represented by yellow and red dots on the map.

Hover mouse over dot to see the name of the station.

Then click to see weather observations and forecasts.

To change the map : click on the green buttons with a black cross to zoom in, on the green button with a dash to zoom out, or on the green arrows for adjacent maps.


METAR-TAF: